sensor_id;sensor_type;location;lat;lon;timestamp;P1;durP1;ratioP1;P2;durP2;ratioP2
80253;SDS011;69563;37.974;23.708;2023-07-08T00:01:49;8.75;;;6.57;;
80253;SDS011;69563;37.974;23.708;2023-07-08T00:04:14;7.88;;;6.00;;
80253;SDS011;69563;37.974;23.708;2023-07-08T00:06:40;8.07;;;6.28;;
80253;SDS011;69563;37.974;23.708;2023-07-08T00:09:12;8.38;;;6.45;;
80253;SDS011;69563;37.974;23.708;2023-07-08T00:11:38;9.40;;;6.22;;
80253;SDS011;69563;37.974;23.708;2023-07-08T00:14:04;9.40;;;6.53;;
80253;SDS011;69563;37.974;23.708;2023-07-08T00:16:29;9.00;;;6.60;;
80253;SDS011;69563;37.974;23.708;2023-07-08T00:18:55;7.45;;;6.43;;
80253;SDS011;69563;37.974;23.708;2023-07-08T00:21:21;10.07;;;6.70;;
80253;SDS011;69563;37.974;23.708;2023-07-08T00:23:47;9.05;;;7.25;;
80253;SDS011;69563;37.974;23.708;2023-07-08T00:28:49;11.18;;;7.05;;
80253;SDS011;69563;37.974;23.708;2023-07-08T00:31:15;9.13;;;7.03;;
80253;SDS011;69563;37.974;23.708;2023-07-08T00:33:41;9.15;;;6.82;;
80253;SDS011;69563;37.974;23.708;2023-07-08T00:36:11;9.70;;;7.38;;
80253;SDS011;69563;37.974;23.708;2023-07-08T00:38:37;11.85;;;7.18;;
80253;SDS011;69563;37.974;23.708;2023-07-08T00:46:08;10.13;;;7.07;;
80253;SDS011;69563;37.974;23.708;2023-07-08T00:51:37;9.63;;;7.25;;
80253;SDS011;69563;37.974;23.708;2023-07-08T00:54:14;11.25;;;7.57;;
80253;SDS011;69563;37.974;23.708;2023-07-08T00:56:55;11.77;;;7.78;;
80253;SDS011;69563;37.974;23.708;2023-07-08T01:02:23;11.00;;;7.82;;
80253;SDS011;69563;37.974;23.708;2023-07-08T01:05:02;12.65;;;8.07;;
80253;SDS011;69563;37.974;23.708;2023-07-08T01:10:06;10.30;;;8.32;;
80253;SDS011;69563;37.974;23.708;2023-07-08T01:12:38;11.88;;;7.85;;
80253;SDS011;69563;37.974;23.708;2023-07-08T01:15:07;9.60;;;8.30;;
80253;SDS011;69563;37.974;23.708;2023-07-08T01:17:34;10.82;;;8.52;;
80253;SDS011;69563;37.974;23.708;2023-07-08T01:20:02;10.02;;;8.18;;
80253;SDS011;69563;37.974;23.708;2023-07-08T01:22:37;10.70;;;8.35;;
80253;SDS011;69563;37.974;23.708;2023-07-08T01:25:05;9.85;;;8.00;;
80253;SDS011;69563;37.974;23.708;2023-07-08T01:27:33;11.15;;;8.18;;
80253;SDS011;69563;37.974;23.708;2023-07-08T01:30:02;11.82;;;9.05;;
80253;SDS011;69563;37.974;23.708;2023-07-08T01:32:29;10.75;;;8.80;;
80253;SDS011;69563;37.974;23.708;2023-07-08T01:34:59;10.68;;;8.23;;
80253;SDS011;69563;37.974;23.708;2023-07-08T01:37:31;12.82;;;8.63;;
80253;SDS011;69563;37.974;23.708;2023-07-08T01:42:41;11.70;;;8.90;;
80253;SDS011;69563;37.974;23.708;2023-07-08T01:45:10;10.93;;;8.77;;
80253;SDS011;69563;37.974;23.708;2023-07-08T01:47:37;10.23;;;8.35;;
80253;SDS011;69563;37.974;23.708;2023-07-08T01:50:05;11.73;;;8.25;;
80253;SDS011;69563;37.974;23.708;2023-07-08T01:52:31;11.82;;;8.23;;
80253;SDS011;69563;37.974;23.708;2023-07-08T01:54:57;11.45;;;8.77;;
80253;SDS011;69563;37.974;23.708;2023-07-08T01:57:23;10.20;;;8.63;;
80253;SDS011;69563;37.974;23.708;2023-07-08T01:59:48;11.05;;;8.52;;
80253;SDS011;69563;37.974;23.708;2023-07-08T02:02:15;12.00;;;8.70;;
80253;SDS011;69563;37.974;23.708;2023-07-08T02:04:41;12.60;;;8.32;;
80253;SDS011;69563;37.974;23.708;2023-07-08T02:07:06;11.90;;;8.23;;
80253;SDS011;69563;37.974;23.708;2023-07-08T02:09:32;12.15;;;8.48;;
80253;SDS011;69563;37.974;23.708;2023-07-08T02:11:58;13.23;;;8.35;;
80253;SDS011;69563;37.974;23.708;2023-07-08T02:14:23;10.77;;;8.27;;
80253;SDS011;69563;37.974;23.708;2023-07-08T02:16:49;10.70;;;8.32;;
80253;SDS011;69563;37.974;23.708;2023-07-08T02:19:15;9.77;;;8.23;;
80253;SDS011;69563;37.974;23.708;2023-07-08T02:21:41;13.50;;;7.72;;
80253;SDS011;69563;37.974;23.708;2023-07-08T02:24:06;11.10;;;8.52;;
80253;SDS011;69563;37.974;23.708;2023-07-08T02:26:32;12.48;;;8.63;;
80253;SDS011;69563;37.974;23.708;2023-07-08T02:28:58;10.57;;;8.18;;
80253;SDS011;69563;37.974;23.708;2023-07-08T02:31:25;10.88;;;7.75;;
80253;SDS011;69563;37.974;23.708;2023-07-08T02:33:52;10.45;;;8.55;;
80253;SDS011;69563;37.974;23.708;2023-07-08T02:36:18;9.60;;;7.65;;
80253;SDS011;69563;37.974;23.708;2023-07-08T02:38:44;10.88;;;8.02;;
80253;SDS011;69563;37.974;23.708;2023-07-08T02:41:09;9.98;;;7.95;;
80253;SDS011;69563;37.974;23.708;2023-07-08T02:43:36;10.20;;;8.02;;
80253;SDS011;69563;37.974;23.708;2023-07-08T02:46:03;10.77;;;7.90;;
80253;SDS011;69563;37.974;23.708;2023-07-08T02:48:29;10.85;;;8.10;;
80253;SDS011;69563;37.974;23.708;2023-07-08T02:50:58;11.75;;;8.30;;
80253;SDS011;69563;37.974;23.708;2023-07-08T02:53:25;10.82;;;8.15;;
80253;SDS011;69563;37.974;23.708;2023-07-08T02:55:51;11.80;;;8.45;;
80253;SDS011;69563;37.974;23.708;2023-07-08T02:58:17;10.68;;;8.30;;
80253;SDS011;69563;37.974;23.708;2023-07-08T03:00:42;12.45;;;7.95;;
80253;SDS011;69563;37.974;23.708;2023-07-08T03:03:08;11.40;;;8.15;;
80253;SDS011;69563;37.974;23.708;2023-07-08T03:05:34;12.05;;;7.93;;
80253;SDS011;69563;37.974;23.708;2023-07-08T03:07:59;11.70;;;8.30;;
80253;SDS011;69563;37.974;23.708;2023-07-08T03:10:25;11.25;;;8.25;;
80253;SDS011;69563;37.974;23.708;2023-07-08T03:12:51;9.48;;;7.88;;
80253;SDS011;69563;37.974;23.708;2023-07-08T03:15:17;10.25;;;7.70;;
80253;SDS011;69563;37.974;23.708;2023-07-08T03:17:43;11.68;;;7.93;;
80253;SDS011;69563;37.974;23.708;2023-07-08T03:20:09;9.30;;;7.78;;
80253;SDS011;69563;37.974;23.708;2023-07-08T03:22:36;9.90;;;7.82;;
80253;SDS011;69563;37.974;23.708;2023-07-08T03:25:02;9.82;;;7.90;;
80253;SDS011;69563;37.974;23.708;2023-07-08T03:27:28;13.65;;;7.80;;
80253;SDS011;69563;37.974;23.708;2023-07-08T03:29:54;11.80;;;8.30;;
80253;SDS011;69563;37.974;23.708;2023-07-08T03:32:20;10.18;;;8.25;;
80253;SDS011;69563;37.974;23.708;2023-07-08T03:34:45;10.55;;;7.97;;
80253;SDS011;69563;37.974;23.708;2023-07-08T03:37:11;10.63;;;8.02;;
80253;SDS011;69563;37.974;23.708;2023-07-08T03:39:37;10.52;;;8.05;;
80253;SDS011;69563;37.974;23.708;2023-07-08T03:42:03;9.13;;;8.20;;
80253;SDS011;69563;37.974;23.708;2023-07-08T03:44:29;12.98;;;7.97;;
80253;SDS011;69563;37.974;23.708;2023-07-08T03:46:55;10.38;;;8.10;;
80253;SDS011;69563;37.974;23.708;2023-07-08T03:49:21;11.00;;;8.00;;
80253;SDS011;69563;37.974;23.708;2023-07-08T03:51:49;11.27;;;8.23;;
80253;SDS011;69563;37.974;23.708;2023-07-08T03:54:19;9.38;;;7.93;;
80253;SDS011;69563;37.974;23.708;2023-07-08T03:56:45;10.52;;;7.80;;
80253;SDS011;69563;37.974;23.708;2023-07-08T03:59:11;11.55;;;8.38;;
80253;SDS011;69563;37.974;23.708;2023-07-08T04:01:37;11.15;;;8.23;;
80253;SDS011;69563;37.974;23.708;2023-07-08T04:04:06;12.23;;;8.38;;
80253;SDS011;69563;37.974;23.708;2023-07-08T04:06:36;10.60;;;8.60;;
80253;SDS011;69563;37.974;23.708;2023-07-08T04:09:01;10.00;;;8.35;;
80253;SDS011;69563;37.974;23.708;2023-07-08T04:11:27;9.88;;;7.97;;
80253;SDS011;69563;37.974;23.708;2023-07-08T04:13:53;11.45;;;8.00;;
80253;SDS011;69563;37.974;23.708;2023-07-08T04:16:26;10.95;;;8.10;;
80253;SDS011;69563;37.974;23.708;2023-07-08T04:18:55;9.98;;;7.97;;
80253;SDS011;69563;37.974;23.708;2023-07-08T04:21:21;9.27;;;7.93;;
80253;SDS011;69563;37.974;23.708;2023-07-08T04:23:50;9.82;;;7.68;;
80253;SDS011;69563;37.974;23.708;2023-07-08T04:26:17;9.75;;;7.82;;
80253;SDS011;69563;37.974;23.708;2023-07-08T04:28:44;11.63;;;8.10;;
80253;SDS011;69563;37.974;23.708;2023-07-08T04:31:10;10.18;;;8.30;;
80253;SDS011;69563;37.974;23.708;2023-07-08T04:33:36;10.88;;;7.97;;
80253;SDS011;69563;37.974;23.708;2023-07-08T04:36:02;9.82;;;8.07;;
80253;SDS011;69563;37.974;23.708;2023-07-08T04:38:28;9.70;;;8.13;;
80253;SDS011;69563;37.974;23.708;2023-07-08T04:40:54;12.73;;;7.90;;
80253;SDS011;69563;37.974;23.708;2023-07-08T04:43:22;9.93;;;8.30;;
80253;SDS011;69563;37.974;23.708;2023-07-08T04:45:49;8.90;;;7.57;;
80253;SDS011;69563;37.974;23.708;2023-07-08T04:48:17;9.65;;;7.53;;
80253;SDS011;69563;37.974;23.708;2023-07-08T04:50:46;9.20;;;8.10;;
80253;SDS011;69563;37.974;23.708;2023-07-08T04:53:14;10.73;;;8.15;;
80253;SDS011;69563;37.974;23.708;2023-07-08T04:56:01;10.77;;;8.20;;
80253;SDS011;69563;37.974;23.708;2023-07-08T04:58:26;10.05;;;8.20;;
80253;SDS011;69563;37.974;23.708;2023-07-08T05:00:52;11.48;;;8.07;;
80253;SDS011;69563;37.974;23.708;2023-07-08T05:03:17;10.68;;;7.93;;
80253;SDS011;69563;37.974;23.708;2023-07-08T05:05:43;10.13;;;7.82;;
80253;SDS011;69563;37.974;23.708;2023-07-08T05:08:09;9.57;;;7.65;;
80253;SDS011;69563;37.974;23.708;2023-07-08T05:10:35;11.27;;;8.27;;
80253;SDS011;69563;37.974;23.708;2023-07-08T05:13:01;11.57;;;8.13;;
80253;SDS011;69563;37.974;23.708;2023-07-08T05:15:27;10.88;;;7.95;;
80253;SDS011;69563;37.974;23.708;2023-07-08T05:17:52;9.65;;;8.05;;
80253;SDS011;69563;37.974;23.708;2023-07-08T05:20:18;14.32;;;8.50;;
80253;SDS011;69563;37.974;23.708;2023-07-08T05:22:44;10.60;;;7.65;;
80253;SDS011;69563;37.974;23.708;2023-07-08T05:25:12;10.80;;;8.02;;
80253;SDS011;69563;37.974;23.708;2023-07-08T05:27:38;9.85;;;8.35;;
80253;SDS011;69563;37.974;23.708;2023-07-08T05:30:05;9.73;;;7.50;;
80253;SDS011;69563;37.974;23.708;2023-07-08T05:32:31;9.00;;;7.43;;
80253;SDS011;69563;37.974;23.708;2023-07-08T05:34:57;10.82;;;7.68;;
80253;SDS011;69563;37.974;23.708;2023-07-08T05:37:23;9.20;;;8.10;;
80253;SDS011;69563;37.974;23.708;2023-07-08T05:39:53;9.30;;;8.18;;
80253;SDS011;69563;37.974;23.708;2023-07-08T05:42:20;11.73;;;8.02;;
80253;SDS011;69563;37.974;23.708;2023-07-08T05:44:47;11.85;;;8.38;;
80253;SDS011;69563;37.974;23.708;2023-07-08T05:47:13;11.20;;;8.60;;
80253;SDS011;69563;37.974;23.708;2023-07-08T05:49:39;10.30;;;8.40;;
80253;SDS011;69563;37.974;23.708;2023-07-08T05:52:05;10.50;;;8.05;;
80253;SDS011;69563;37.974;23.708;2023-07-08T05:54:36;10.73;;;8.45;;
80253;SDS011;69563;37.974;23.708;2023-07-08T05:57:03;14.38;;;8.38;;
80253;SDS011;69563;37.974;23.708;2023-07-08T05:59:30;9.77;;;8.23;;
80253;SDS011;69563;37.974;23.708;2023-07-08T06:01:56;10.93;;;8.38;;
80253;SDS011;69563;37.974;23.708;2023-07-08T06:04:22;10.60;;;8.07;;
80253;SDS011;69563;37.974;23.708;2023-07-08T06:06:47;12.70;;;8.60;;
80253;SDS011;69563;37.974;23.708;2023-07-08T06:09:13;10.52;;;7.97;;
80253;SDS011;69563;37.974;23.708;2023-07-08T06:11:39;11.52;;;8.70;;
80253;SDS011;69563;37.974;23.708;2023-07-08T06:14:05;11.60;;;8.73;;
80253;SDS011;69563;37.974;23.708;2023-07-08T06:16:31;11.27;;;8.25;;
80253;SDS011;69563;37.974;23.708;2023-07-08T06:18:59;12.15;;;8.18;;
80253;SDS011;69563;37.974;23.708;2023-07-08T06:21:25;10.98;;;8.18;;
80253;SDS011;69563;37.974;23.708;2023-07-08T06:23:51;11.35;;;8.40;;
80253;SDS011;69563;37.974;23.708;2023-07-08T06:26:16;10.40;;;8.90;;
80253;SDS011;69563;37.974;23.708;2023-07-08T06:28:42;12.02;;;8.70;;
80253;SDS011;69563;37.974;23.708;2023-07-08T06:31:08;10.18;;;8.45;;
80253;SDS011;69563;37.974;23.708;2023-07-08T06:33:34;20.67;;;8.90;;
80253;SDS011;69563;37.974;23.708;2023-07-08T06:36:00;15.15;;;8.65;;
80253;SDS011;69563;37.974;23.708;2023-07-08T06:38:25;12.48;;;8.13;;
80253;SDS011;69563;37.974;23.708;2023-07-08T06:40:51;12.75;;;8.77;;
80253;SDS011;69563;37.974;23.708;2023-07-08T06:43:17;12.48;;;8.80;;
80253;SDS011;69563;37.974;23.708;2023-07-08T06:45:43;11.90;;;9.00;;
80253;SDS011;69563;37.974;23.708;2023-07-08T06:48:09;13.63;;;8.98;;
80253;SDS011;69563;37.974;23.708;2023-07-08T06:50:35;12.20;;;9.23;;
80253;SDS011;69563;37.974;23.708;2023-07-08T06:53:01;11.43;;;8.50;;
80253;SDS011;69563;37.974;23.708;2023-07-08T06:55:26;12.13;;;8.52;;
80253;SDS011;69563;37.974;23.708;2023-07-08T06:57:53;13.23;;;8.65;;
80253;SDS011;69563;37.974;23.708;2023-07-08T07:00:19;12.35;;;8.73;;
80253;SDS011;69563;37.974;23.708;2023-07-08T07:02:45;10.52;;;8.07;;
80253;SDS011;69563;37.974;23.708;2023-07-08T07:05:11;12.43;;;8.10;;
80253;SDS011;69563;37.974;23.708;2023-07-08T07:07:37;10.73;;;8.10;;
80253;SDS011;69563;37.974;23.708;2023-07-08T07:10:02;12.25;;;7.95;;
80253;SDS011;69563;37.974;23.708;2023-07-08T07:12:28;11.07;;;8.07;;
80253;SDS011;69563;37.974;23.708;2023-07-08T07:14:54;8.75;;;7.57;;
80253;SDS011;69563;37.974;23.708;2023-07-08T07:17:20;14.73;;;7.80;;
80253;SDS011;69563;37.974;23.708;2023-07-08T07:19:47;11.40;;;8.05;;
80253;SDS011;69563;37.974;23.708;2023-07-08T07:22:13;14.23;;;8.50;;
80253;SDS011;69563;37.974;23.708;2023-07-08T07:24:40;11.25;;;7.63;;
80253;SDS011;69563;37.974;23.708;2023-07-08T07:27:06;12.18;;;7.90;;
80253;SDS011;69563;37.974;23.708;2023-07-08T07:29:43;12.65;;;7.57;;
80253;SDS011;69563;37.974;23.708;2023-07-08T07:32:10;10.95;;;7.45;;
80253;SDS011;69563;37.974;23.708;2023-07-08T07:34:37;10.73;;;7.20;;
80253;SDS011;69563;37.974;23.708;2023-07-08T07:37:04;9.23;;;7.30;;
80253;SDS011;69563;37.974;23.708;2023-07-08T07:39:39;13.82;;;6.80;;
80253;SDS011;69563;37.974;23.708;2023-07-08T07:42:06;11.90;;;6.80;;
80253;SDS011;69563;37.974;23.708;2023-07-08T07:44:32;10.48;;;6.70;;
80253;SDS011;69563;37.974;23.708;2023-07-08T07:46:58;8.20;;;7.20;;
80253;SDS011;69563;37.974;23.708;2023-07-08T07:49:24;10.68;;;7.07;;
80253;SDS011;69563;37.974;23.708;2023-07-08T07:51:49;11.13;;;7.22;;
80253;SDS011;69563;37.974;23.708;2023-07-08T07:54:15;10.18;;;6.95;;
80253;SDS011;69563;37.974;23.708;2023-07-08T07:56:41;12.60;;;7.15;;
80253;SDS011;69563;37.974;23.708;2023-07-08T07:59:07;13.60;;;6.88;;
80253;SDS011;69563;37.974;23.708;2023-07-08T08:01:33;9.65;;;6.47;;
80253;SDS011;69563;37.974;23.708;2023-07-08T08:03:58;13.20;;;6.78;;
80253;SDS011;69563;37.974;23.708;2023-07-08T08:06:24;11.85;;;6.88;;
80253;SDS011;69563;37.974;23.708;2023-07-08T08:08:50;14.95;;;6.60;;
80253;SDS011;69563;37.974;23.708;2023-07-08T08:11:16;12.05;;;6.70;;
80253;SDS011;69563;37.974;23.708;2023-07-08T08:13:41;10.80;;;6.18;;
80253;SDS011;69563;37.974;23.708;2023-07-08T08:16:07;9.70;;;7.03;;
80253;SDS011;69563;37.974;23.708;2023-07-08T08:18:34;11.50;;;6.60;;
80253;SDS011;69563;37.974;23.708;2023-07-08T08:21:00;15.32;;;6.78;;
80253;SDS011;69563;37.974;23.708;2023-07-08T08:23:28;9.63;;;6.63;;
80253;SDS011;69563;37.974;23.708;2023-07-08T08:25:54;11.27;;;6.78;;
80253;SDS011;69563;37.974;23.708;2023-07-08T08:28:19;11.30;;;6.80;;
80253;SDS011;69563;37.974;23.708;2023-07-08T08:30:48;10.95;;;6.32;;
80253;SDS011;69563;37.974;23.708;2023-07-08T08:33:15;12.32;;;6.40;;
80253;SDS011;69563;37.974;23.708;2023-07-08T08:35:41;11.25;;;6.60;;
80253;SDS011;69563;37.974;23.708;2023-07-08T08:38:08;11.80;;;6.32;;
80253;SDS011;69563;37.974;23.708;2023-07-08T08:40:34;8.82;;;6.25;;
80253;SDS011;69563;37.974;23.708;2023-07-08T08:43:00;9.93;;;6.30;;
80253;SDS011;69563;37.974;23.708;2023-07-08T08:45:32;11.90;;;6.00;;
80253;SDS011;69563;37.974;23.708;2023-07-08T08:48:04;9.02;;;5.78;;
80253;SDS011;69563;37.974;23.708;2023-07-08T08:50:47;11.15;;;6.20;;
80253;SDS011;69563;37.974;23.708;2023-07-08T08:53:16;12.02;;;6.40;;
80253;SDS011;69563;37.974;23.708;2023-07-08T08:55:46;10.43;;;6.28;;
80253;SDS011;69563;37.974;23.708;2023-07-08T08:58:27;8.55;;;6.22;;
80253;SDS011;69563;37.974;23.708;2023-07-08T09:01:02;8.77;;;6.18;;
80253;SDS011;69563;37.974;23.708;2023-07-08T09:03:37;10.30;;;6.40;;
80253;SDS011;69563;37.974;23.708;2023-07-08T09:06:12;9.65;;;6.72;;
80253;SDS011;69563;37.974;23.708;2023-07-08T09:08:46;8.73;;;6.45;;
80253;SDS011;69563;37.974;23.708;2023-07-08T09:11:19;9.27;;;6.38;;
80253;SDS011;69563;37.974;23.708;2023-07-08T09:13:59;11.27;;;6.53;;
80253;SDS011;69563;37.974;23.708;2023-07-08T09:19:35;10.88;;;6.20;;
80253;SDS011;69563;37.974;23.708;2023-07-08T09:24:39;10.10;;;6.75;;
80253;SDS011;69563;37.974;23.708;2023-07-08T09:27:16;10.35;;;7.40;;
80253;SDS011;69563;37.974;23.708;2023-07-08T09:29:42;8.98;;;7.35;;
80253;SDS011;69563;37.974;23.708;2023-07-08T09:32:13;10.10;;;7.28;;
80253;SDS011;69563;37.974;23.708;2023-07-08T09:34:43;11.57;;;7.35;;
80253;SDS011;69563;37.974;23.708;2023-07-08T09:37:21;10.93;;;7.45;;
80253;SDS011;69563;37.974;23.708;2023-07-08T09:39:59;8.70;;;7.57;;
80253;SDS011;69563;37.974;23.708;2023-07-08T09:42:31;11.15;;;7.53;;
80253;SDS011;69563;37.974;23.708;2023-07-08T09:44:58;11.65;;;7.35;;
80253;SDS011;69563;37.974;23.708;2023-07-08T09:47:32;9.45;;;7.60;;
80253;SDS011;69563;37.974;23.708;2023-07-08T09:50:01;10.75;;;7.63;;
80253;SDS011;69563;37.974;23.708;2023-07-08T09:52:35;10.45;;;7.45;;
80253;SDS011;69563;37.974;23.708;2023-07-08T09:55:01;11.25;;;7.85;;
80253;SDS011;69563;37.974;23.708;2023-07-08T09:57:28;10.07;;;7.60;;
80253;SDS011;69563;37.974;23.708;2023-07-08T09:59:58;9.25;;;7.90;;
80253;SDS011;69563;37.974;23.708;2023-07-08T10:02:45;11.88;;;8.05;;
80253;SDS011;69563;37.974;23.708;2023-07-08T10:05:22;12.43;;;7.90;;
80253;SDS011;69563;37.974;23.708;2023-07-08T10:07:54;8.95;;;7.90;;
80253;SDS011;69563;37.974;23.708;2023-07-08T10:10:39;9.40;;;7.55;;
80253;SDS011;69563;37.974;23.708;2023-07-08T10:16:28;12.05;;;7.55;;
80253;SDS011;69563;37.974;23.708;2023-07-08T10:18:56;11.40;;;7.63;;
80253;SDS011;69563;37.974;23.708;2023-07-08T10:21:41;9.52;;;7.50;;
80253;SDS011;69563;37.974;23.708;2023-07-08T10:24:20;11.52;;;7.93;;
80253;SDS011;69563;37.974;23.708;2023-07-08T10:26:53;9.65;;;8.10;;
80253;SDS011;69563;37.974;23.708;2023-07-08T10:29:28;10.18;;;8.07;;
80253;SDS011;69563;37.974;23.708;2023-07-08T10:32:23;10.75;;;7.93;;
80253;SDS011;69563;37.974;23.708;2023-07-08T10:37:28;11.48;;;7.47;;
80253;SDS011;69563;37.974;23.708;2023-07-08T10:51:47;9.27;;;7.97;;
80253;SDS011;69563;37.974;23.708;2023-07-08T11:00:04;13.50;;;7.60;;
80253;SDS011;69563;37.974;23.708;2023-07-08T11:05:46;9.57;;;7.30;;
80253;SDS011;69563;37.974;23.708;2023-07-08T11:08:50;10.00;;;7.30;;
80253;SDS011;69563;37.974;23.708;2023-07-08T11:14:29;13.30;;;8.18;;
80253;SDS011;69563;37.974;23.708;2023-07-08T11:19:35;10.48;;;8.00;;
80253;SDS011;69563;37.974;23.708;2023-07-08T11:22:05;12.80;;;7.47;;
80253;SDS011;69563;37.974;23.708;2023-07-08T11:24:38;10.60;;;7.32;;
80253;SDS011;69563;37.974;23.708;2023-07-08T11:27:13;10.27;;;8.00;;
80253;SDS011;69563;37.974;23.708;2023-07-08T11:29:56;10.50;;;7.68;;
80253;SDS011;69563;37.974;23.708;2023-07-08T11:32:59;9.85;;;7.18;;
80253;SDS011;69563;37.974;23.708;2023-07-08T11:38:02;10.15;;;7.10;;
80253;SDS011;69563;37.974;23.708;2023-07-08T11:40:29;9.40;;;7.10;;
80253;SDS011;69563;37.974;23.708;2023-07-08T11:43:02;10.43;;;7.18;;
80253;SDS011;69563;37.974;23.708;2023-07-08T11:45:38;10.55;;;7.43;;
80253;SDS011;69563;37.974;23.708;2023-07-08T11:50:47;8.23;;;7.35;;
80253;SDS011;69563;37.974;23.708;2023-07-08T12:07:01;10.82;;;7.10;;
80253;SDS011;69563;37.974;23.708;2023-07-08T12:09:28;12.05;;;7.47;;
80253;SDS011;69563;37.974;23.708;2023-07-08T12:12:02;9.80;;;7.35;;
80253;SDS011;69563;37.974;23.708;2023-07-08T12:14:31;10.25;;;6.90;;
80253;SDS011;69563;37.974;23.708;2023-07-08T12:16:57;10.02;;;7.13;;
80253;SDS011;69563;37.974;23.708;2023-07-08T12:19:23;9.98;;;7.07;;
80253;SDS011;69563;37.974;23.708;2023-07-08T12:21:53;11.43;;;6.93;;
80253;SDS011;69563;37.974;23.708;2023-07-08T12:24:20;10.65;;;7.00;;
80253;SDS011;69563;37.974;23.708;2023-07-08T12:29:16;10.15;;;6.75;;
80253;SDS011;69563;37.974;23.708;2023-07-08T12:31:42;8.65;;;6.75;;
80253;SDS011;69563;37.974;23.708;2023-07-08T12:34:12;9.77;;;6.65;;
80253;SDS011;69563;37.974;23.708;2023-07-08T12:36:41;9.48;;;7.03;;
80253;SDS011;69563;37.974;23.708;2023-07-08T12:39:10;9.68;;;6.70;;
80253;SDS011;69563;37.974;23.708;2023-07-08T12:41:42;9.30;;;6.60;;
80253;SDS011;69563;37.974;23.708;2023-07-08T12:44:20;9.27;;;6.75;;
80253;SDS011;69563;37.974;23.708;2023-07-08T12:46:48;10.38;;;6.72;;
80253;SDS011;69563;37.974;23.708;2023-07-08T12:49:17;8.30;;;6.68;;
80253;SDS011;69563;37.974;23.708;2023-07-08T12:51:45;8.40;;;6.88;;
80253;SDS011;69563;37.974;23.708;2023-07-08T12:54:12;8.45;;;6.95;;
80253;SDS011;69563;37.974;23.708;2023-07-08T12:56:39;9.20;;;6.97;;
80253;SDS011;69563;37.974;23.708;2023-07-08T12:59:10;11.00;;;6.75;;
80253;SDS011;69563;37.974;23.708;2023-07-08T13:01:48;9.07;;;6.20;;
80253;SDS011;69563;37.974;23.708;2023-07-08T13:04:15;10.82;;;6.75;;
80253;SDS011;69563;37.974;23.708;2023-07-08T13:06:43;9.18;;;6.75;;
80253;SDS011;69563;37.974;23.708;2023-07-08T13:11:57;8.00;;;6.40;;
80253;SDS011;69563;37.974;23.708;2023-07-08T13:14:37;9.00;;;6.68;;
80253;SDS011;69563;37.974;23.708;2023-07-08T13:17:08;10.60;;;6.82;;
80253;SDS011;69563;37.974;23.708;2023-07-08T13:19:39;9.00;;;6.57;;
80253;SDS011;69563;37.974;23.708;2023-07-08T13:22:05;10.73;;;6.57;;
80253;SDS011;69563;37.974;23.708;2023-07-08T13:24:34;8.32;;;6.07;;
80253;SDS011;69563;37.974;23.708;2023-07-08T13:27:00;10.25;;;6.28;;
80253;SDS011;69563;37.974;23.708;2023-07-08T13:29:33;8.90;;;6.38;;
80253;SDS011;69563;37.974;23.708;2023-07-08T13:32:04;9.73;;;6.45;;
80253;SDS011;69563;37.974;23.708;2023-07-08T13:34:32;10.98;;;7.03;;
80253;SDS011;69563;37.974;23.708;2023-07-08T13:36:58;8.10;;;6.18;;
80253;SDS011;69563;37.974;23.708;2023-07-08T13:39:26;12.23;;;6.30;;
80253;SDS011;69563;37.974;23.708;2023-07-08T13:41:54;7.35;;;5.75;;
80253;SDS011;69563;37.974;23.708;2023-07-08T13:44:20;7.68;;;6.07;;
80253;SDS011;69563;37.974;23.708;2023-07-08T13:54:51;9.18;;;6.15;;
80253;SDS011;69563;37.974;23.708;2023-07-08T13:57:19;8.95;;;5.97;;
80253;SDS011;69563;37.974;23.708;2023-07-08T13:59:47;8.57;;;6.00;;
80253;SDS011;69563;37.974;23.708;2023-07-08T14:02:24;9.13;;;6.00;;
80253;SDS011;69563;37.974;23.708;2023-07-08T14:04:52;7.32;;;6.30;;
80253;SDS011;69563;37.974;23.708;2023-07-08T14:07:20;8.25;;;5.55;;
80253;SDS011;69563;37.974;23.708;2023-07-08T14:09:48;8.60;;;6.05;;
80253;SDS011;69563;37.974;23.708;2023-07-08T14:12:13;7.75;;;6.25;;
80253;SDS011;69563;37.974;23.708;2023-07-08T14:14:39;7.45;;;5.85;;
80253;SDS011;69563;37.974;23.708;2023-07-08T14:17:08;8.90;;;5.85;;
80253;SDS011;69563;37.974;23.708;2023-07-08T14:19:37;9.52;;;6.10;;
80253;SDS011;69563;37.974;23.708;2023-07-08T14:22:16;9.65;;;5.90;;
80253;SDS011;69563;37.974;23.708;2023-07-08T14:24:48;8.93;;;5.90;;
80253;SDS011;69563;37.974;23.708;2023-07-08T14:27:14;7.30;;;5.88;;
80253;SDS011;69563;37.974;23.708;2023-07-08T14:29:42;8.90;;;6.40;;
80253;SDS011;69563;37.974;23.708;2023-07-08T14:32:14;11.10;;;5.82;;
80253;SDS011;69563;37.974;23.708;2023-07-08T14:34:48;10.60;;;5.90;;
80253;SDS011;69563;37.974;23.708;2023-07-08T14:37:17;8.52;;;5.78;;
80253;SDS011;69563;37.974;23.708;2023-07-08T14:39:43;8.95;;;5.32;;
80253;SDS011;69563;37.974;23.708;2023-07-08T14:42:11;8.00;;;5.90;;
80253;SDS011;69563;37.974;23.708;2023-07-08T14:44:38;7.28;;;5.20;;
80253;SDS011;69563;37.974;23.708;2023-07-08T14:47:09;7.47;;;5.00;;
80253;SDS011;69563;37.974;23.708;2023-07-08T14:49:36;6.10;;;5.30;;
80253;SDS011;69563;37.974;23.708;2023-07-08T14:52:02;8.00;;;5.15;;
80253;SDS011;69563;37.974;23.708;2023-07-08T14:54:28;7.85;;;5.28;;
80253;SDS011;69563;37.974;23.708;2023-07-08T14:56:54;8.63;;;5.57;;
80253;SDS011;69563;37.974;23.708;2023-07-08T14:59:22;8.77;;;5.15;;
80253;SDS011;69563;37.974;23.708;2023-07-08T15:01:51;7.90;;;5.32;;
80253;SDS011;69563;37.974;23.708;2023-07-08T15:04:18;7.75;;;5.03;;
80253;SDS011;69563;37.974;23.708;2023-07-08T15:06:45;7.43;;;5.30;;
80253;SDS011;69563;37.974;23.708;2023-07-08T15:09:11;6.22;;;5.10;;
80253;SDS011;69563;37.974;23.708;2023-07-08T15:11:39;7.90;;;5.15;;
80253;SDS011;69563;37.974;23.708;2023-07-08T15:14:15;6.63;;;4.90;;
80253;SDS011;69563;37.974;23.708;2023-07-08T15:16:46;8.32;;;5.10;;
80253;SDS011;69563;37.974;23.708;2023-07-08T15:19:13;7.63;;;4.70;;
80253;SDS011;69563;37.974;23.708;2023-07-08T15:21:39;7.28;;;4.70;;
80253;SDS011;69563;37.974;23.708;2023-07-08T15:24:08;7.15;;;4.80;;
80253;SDS011;69563;37.974;23.708;2023-07-08T15:26:39;7.00;;;4.45;;
80253;SDS011;69563;37.974;23.708;2023-07-08T15:29:06;7.63;;;4.43;;
80253;SDS011;69563;37.974;23.708;2023-07-08T15:32:08;7.65;;;5.10;;
80253;SDS011;69563;37.974;23.708;2023-07-08T15:34:40;6.43;;;4.90;;
80253;SDS011;69563;37.974;23.708;2023-07-08T15:37:08;10.80;;;4.80;;
80253;SDS011;69563;37.974;23.708;2023-07-08T15:39:34;9.45;;;4.85;;
80253;SDS011;69563;37.974;23.708;2023-07-08T15:42:00;6.70;;;4.60;;
80253;SDS011;69563;37.974;23.708;2023-07-08T15:44:26;7.45;;;4.85;;
80253;SDS011;69563;37.974;23.708;2023-07-08T15:46:52;7.45;;;4.65;;
80253;SDS011;69563;37.974;23.708;2023-07-08T15:49:19;8.70;;;4.78;;
80253;SDS011;69563;37.974;23.708;2023-07-08T15:51:47;6.22;;;5.03;;
80253;SDS011;69563;37.974;23.708;2023-07-08T15:54:13;6.70;;;4.80;;
80253;SDS011;69563;37.974;23.708;2023-07-08T15:56:40;7.38;;;4.40;;
80253;SDS011;69563;37.974;23.708;2023-07-08T15:59:13;6.38;;;4.60;;
80253;SDS011;69563;37.974;23.708;2023-07-08T16:01:42;7.72;;;4.85;;
80253;SDS011;69563;37.974;23.708;2023-07-08T16:07:04;6.78;;;4.70;;